首页
METAR-TAF:

METAR-TAF

机场 :

Monticello Municipal Airport/Ellis Field

Monticello, 阿肯色州, 美国

纬度: 33-38-18N, 经度: 091-45-04W, 海拔: 82米

当前天气观测

该预报发布于1小时和4分钟前的23:53 UTC
风速4节,风向西转西北
温度 25°C
湿度 69%
气压 1010 hPa
能見度: 16.1公里
多云层高于11000英尺

METAR: KLLQ 262353Z AUTO 30004KT 10SM BKN110 25/19 A2983 RMK AO2 SLP098 T02500194 10278 20250 55006

时间: 19:57 (00:57 UTC)

预报

该预报发布于1小时和17分钟前的23:40 UTC
预报有效从27日的 00点(UTC)到 27日的 24点(UTC)
风速4节,风向多变
能見度: 10公里
散云层高于4000英尺
多云层高于10000英尺
附近有阵雨
从 27日的 1000点(UTC)
风速3节,风向多变
能見度: 9.7公里
多云层高于3000英尺
轻雾, 附近有阵雨
从 27日的 1800点(UTC)
风速7节,风向
能見度: 10公里
多云层高于4000英尺, 积雨云.
附近有雷暴

TAF: KLLQ 262340Z 2700/2724 VRB04KT P6SM VCSH SCT040 BKN100 FM271000 VRB03KT 6SM BR VCSH BKN030 FM271800 17007KT P6SM VCTS BKN040CB

超过4000个机场的气象观测和天气预报(METAR&TAF报告)。

可查询的气象台以黄色和红色小点在地图上表示。

将鼠标移到小点上方,可查看气象台名称。

然后点击查看天气观测和预报。

如需切换地图:点击带黑十字的绿色按钮放大地图;点击带横线的绿色按钮缩小地图;或者点击绿色箭头查看邻近地区的地图。


METAR-TAF: